Terminal Aerodrome Forecast
Issued by NWS Wakefield, VA

Home | Current Version | Previous Version | Text Only | Print | Product List | Glossary On
Versions: 1 2 3 4 5 6 7 8 9 10 11 12 13 14 15 16 17 18 19 20
000
FTUS41 KAKQ 030232 AAA
TAFECG
TAF AMD
KECG 030232Z 0303/0324 20010KT P6SM VCSH SCT050 BKN100
     FM030600 20012KT 4SM -SHRA BKN025 OVC050
     FM031100 22012KT 5SM -SHRA BKN025
     FM032100 29006KT P6SM OVC025=

USA.gov is the U.S. government's official web portal to all federal, state and local government web resources and services.